sensor_id;sensor_type;location;lat;lon;timestamp;P1;durP1;ratioP1;P2;durP2;ratioP2
54388;SDS011;40975;50.390;8.640;2022-11-23T00:00:01;9.27;;;4.18;;
54388;SDS011;40975;50.390;8.640;2022-11-23T00:02:30;4.90;;;3.42;;
54388;SDS011;40975;50.390;8.640;2022-11-23T00:04:55;4.60;;;3.20;;
54388;SDS011;40975;50.390;8.640;2022-11-23T00:07:20;7.85;;;3.88;;
54388;SDS011;40975;50.390;8.640;2022-11-23T00:09:46;9.50;;;3.58;;
54388;SDS011;40975;50.390;8.640;2022-11-23T00:12:11;9.00;;;2.83;;
54388;SDS011;40975;50.390;8.640;2022-11-23T00:14:36;6.20;;;2.90;;
54388;SDS011;40975;50.390;8.640;2022-11-23T00:17:01;10.90;;;3.80;;
54388;SDS011;40975;50.390;8.640;2022-11-23T00:19:27;6.65;;;3.55;;
54388;SDS011;40975;50.390;8.640;2022-11-23T00:21:52;7.28;;;4.10;;
54388;SDS011;40975;50.390;8.640;2022-11-23T00:24:17;7.50;;;3.35;;
54388;SDS011;40975;50.390;8.640;2022-11-23T00:26:43;6.60;;;3.63;;
54388;SDS011;40975;50.390;8.640;2022-11-23T00:29:08;5.85;;;2.95;;
54388;SDS011;40975;50.390;8.640;2022-11-23T00:31:33;11.88;;;3.15;;
54388;SDS011;40975;50.390;8.640;2022-11-23T00:33:59;8.57;;;2.92;;
54388;SDS011;40975;50.390;8.640;2022-11-23T00:36:25;7.78;;;3.20;;
54388;SDS011;40975;50.390;8.640;2022-11-23T00:38:52;4.88;;;2.55;;
54388;SDS011;40975;50.390;8.640;2022-11-23T00:41:19;7.88;;;3.53;;
54388;SDS011;40975;50.390;8.640;2022-11-23T00:43:47;4.15;;;2.50;;
54388;SDS011;40975;50.390;8.640;2022-11-23T00:48:46;9.63;;;2.42;;
54388;SDS011;40975;50.390;8.640;2022-11-23T00:51:13;5.30;;;2.33;;
54388;SDS011;40975;50.390;8.640;2022-11-23T00:53:41;4.65;;;2.85;;
54388;SDS011;40975;50.390;8.640;2022-11-23T00:56:07;4.07;;;2.60;;
54388;SDS011;40975;50.390;8.640;2022-11-23T00:58:33;8.23;;;2.55;;
54388;SDS011;40975;50.390;8.640;2022-11-23T01:01:03;5.95;;;2.40;;
54388;SDS011;40975;50.390;8.640;2022-11-23T01:03:33;4.65;;;2.22;;
54388;SDS011;40975;50.390;8.640;2022-11-23T01:06:04;6.25;;;2.35;;
54388;SDS011;40975;50.390;8.640;2022-11-23T01:08:33;8.93;;;2.78;;
54388;SDS011;40975;50.390;8.640;2022-11-23T01:11:02;2.40;;;1.67;;
54388;SDS011;40975;50.390;8.640;2022-11-23T01:13:33;3.75;;;2.17;;
54388;SDS011;40975;50.390;8.640;2022-11-23T01:16:00;3.20;;;1.98;;
54388;SDS011;40975;50.390;8.640;2022-11-23T01:18:25;6.30;;;2.58;;
54388;SDS011;40975;50.390;8.640;2022-11-23T01:20:51;4.60;;;1.95;;
54388;SDS011;40975;50.390;8.640;2022-11-23T01:23:17;4.82;;;1.90;;
54388;SDS011;40975;50.390;8.640;2022-11-23T01:25:42;4.55;;;2.03;;
54388;SDS011;40975;50.390;8.640;2022-11-23T01:28:08;5.22;;;1.70;;
54388;SDS011;40975;50.390;8.640;2022-11-23T01:30:34;3.17;;;1.42;;
54388;SDS011;40975;50.390;8.640;2022-11-23T01:33:00;3.20;;;1.80;;
54388;SDS011;40975;50.390;8.640;2022-11-23T01:35:28;5.75;;;1.90;;
54388;SDS011;40975;50.390;8.640;2022-11-23T01:37:54;6.15;;;1.65;;
54388;SDS011;40975;50.390;8.640;2022-11-23T01:40:19;2.00;;;1.40;;
54388;SDS011;40975;50.390;8.640;2022-11-23T01:42:46;5.63;;;2.10;;
54388;SDS011;40975;50.390;8.640;2022-11-23T01:45:36;8.30;;;1.98;;
54388;SDS011;40975;50.390;8.640;2022-11-23T01:48:14;5.93;;;1.77;;
54388;SDS011;40975;50.390;8.640;2022-11-23T01:50:42;4.75;;;1.60;;
54388;SDS011;40975;50.390;8.640;2022-11-23T01:53:11;6.10;;;1.70;;
54388;SDS011;40975;50.390;8.640;2022-11-23T01:55:36;6.75;;;1.90;;
54388;SDS011;40975;50.390;8.640;2022-11-23T01:58:03;4.18;;;1.40;;
54388;SDS011;40975;50.390;8.640;2022-11-23T02:00:33;7.72;;;2.05;;
54388;SDS011;40975;50.390;8.640;2022-11-23T02:02:58;4.15;;;2.20;;
54388;SDS011;40975;50.390;8.640;2022-11-23T02:05:31;3.97;;;1.92;;
54388;SDS011;40975;50.390;8.640;2022-11-23T02:08:01;4.35;;;1.65;;
54388;SDS011;40975;50.390;8.640;2022-11-23T02:10:28;5.30;;;1.40;;
54388;SDS011;40975;50.390;8.640;2022-11-23T02:12:55;8.68;;;1.98;;
54388;SDS011;40975;50.390;8.640;2022-11-23T02:15:25;4.95;;;2.00;;
54388;SDS011;40975;50.390;8.640;2022-11-23T02:17:51;4.30;;;1.85;;
54388;SDS011;40975;50.390;8.640;2022-11-23T02:20:16;3.97;;;1.83;;
54388;SDS011;40975;50.390;8.640;2022-11-23T02:22:48;6.53;;;1.83;;
54388;SDS011;40975;50.390;8.640;2022-11-23T02:28:20;7.28;;;1.70;;
54388;SDS011;40975;50.390;8.640;2022-11-23T02:30:49;7.78;;;2.25;;
54388;SDS011;40975;50.390;8.640;2022-11-23T02:33:16;4.53;;;1.83;;
54388;SDS011;40975;50.390;8.640;2022-11-23T02:35:48;4.30;;;1.85;;
54388;SDS011;40975;50.390;8.640;2022-11-23T02:38:16;5.07;;;1.92;;
54388;SDS011;40975;50.390;8.640;2022-11-23T02:40:42;3.80;;;1.60;;
54388;SDS011;40975;50.390;8.640;2022-11-23T02:43:08;8.38;;;2.38;;
54388;SDS011;40975;50.390;8.640;2022-11-23T02:48:14;7.55;;;2.10;;
54388;SDS011;40975;50.390;8.640;2022-11-23T02:50:39;6.55;;;2.25;;
54388;SDS011;40975;50.390;8.640;2022-11-23T02:53:05;4.10;;;2.10;;
54388;SDS011;40975;50.390;8.640;2022-11-23T02:55:30;4.82;;;2.55;;
54388;SDS011;40975;50.390;8.640;2022-11-23T02:57:58;8.63;;;2.40;;
54388;SDS011;40975;50.390;8.640;2022-11-23T03:00:24;3.83;;;2.13;;
54388;SDS011;40975;50.390;8.640;2022-11-23T03:02:49;5.85;;;2.55;;
54388;SDS011;40975;50.390;8.640;2022-11-23T03:05:14;8.10;;;2.42;;
54388;SDS011;40975;50.390;8.640;2022-11-23T03:07:40;4.63;;;2.08;;
54388;SDS011;40975;50.390;8.640;2022-11-23T03:10:05;7.32;;;2.10;;
54388;SDS011;40975;50.390;8.640;2022-11-23T03:12:31;4.32;;;1.83;;
54388;SDS011;40975;50.390;8.640;2022-11-23T03:14:58;3.35;;;2.20;;
54388;SDS011;40975;50.390;8.640;2022-11-23T03:17:23;4.43;;;1.88;;
54388;SDS011;40975;50.390;8.640;2022-11-23T03:19:48;5.20;;;2.95;;
54388;SDS011;40975;50.390;8.640;2022-11-23T03:22:14;4.45;;;2.10;;
54388;SDS011;40975;50.390;8.640;2022-11-23T03:24:39;7.00;;;2.47;;
54388;SDS011;40975;50.390;8.640;2022-11-23T03:27:08;5.78;;;2.03;;
54388;SDS011;40975;50.390;8.640;2022-11-23T03:29:33;4.82;;;2.28;;
54388;SDS011;40975;50.390;8.640;2022-11-23T03:32:03;9.00;;;1.92;;
54388;SDS011;40975;50.390;8.640;2022-11-23T03:34:29;4.60;;;1.90;;
54388;SDS011;40975;50.390;8.640;2022-11-23T03:36:54;7.05;;;2.08;;
54388;SDS011;40975;50.390;8.640;2022-11-23T03:39:20;7.00;;;2.30;;
54388;SDS011;40975;50.390;8.640;2022-11-23T03:41:54;9.40;;;2.28;;
54388;SDS011;40975;50.390;8.640;2022-11-23T03:44:23;6.45;;;1.98;;
54388;SDS011;40975;50.390;8.640;2022-11-23T03:46:48;4.45;;;2.28;;
54388;SDS011;40975;50.390;8.640;2022-11-23T03:49:14;2.75;;;1.85;;
54388;SDS011;40975;50.390;8.640;2022-11-23T03:51:40;8.15;;;2.88;;
54388;SDS011;40975;50.390;8.640;2022-11-23T03:54:06;7.22;;;1.92;;
54388;SDS011;40975;50.390;8.640;2022-11-23T03:56:32;5.82;;;1.73;;
54388;SDS011;40975;50.390;8.640;2022-11-23T03:58:57;6.70;;;2.50;;
54388;SDS011;40975;50.390;8.640;2022-11-23T04:01:23;5.93;;;2.08;;
54388;SDS011;40975;50.390;8.640;2022-11-23T04:03:55;8.65;;;3.08;;
54388;SDS011;40975;50.390;8.640;2022-11-23T04:06:32;4.63;;;1.83;;
54388;SDS011;40975;50.390;8.640;2022-11-23T04:09:02;7.05;;;2.08;;
54388;SDS011;40975;50.390;8.640;2022-11-23T04:11:57;2.88;;;1.95;;
54388;SDS011;40975;50.390;8.640;2022-11-23T04:14:23;5.45;;;2.08;;
54388;SDS011;40975;50.390;8.640;2022-11-23T04:16:48;4.60;;;1.70;;
54388;SDS011;40975;50.390;8.640;2022-11-23T04:19:14;3.45;;;1.90;;
54388;SDS011;40975;50.390;8.640;2022-11-23T04:21:39;4.05;;;1.52;;
54388;SDS011;40975;50.390;8.640;2022-11-23T04:24:05;3.75;;;1.40;;
54388;SDS011;40975;50.390;8.640;2022-11-23T04:26:32;4.10;;;1.60;;
54388;SDS011;40975;50.390;8.640;2022-11-23T04:28:58;7.10;;;2.00;;
54388;SDS011;40975;50.390;8.640;2022-11-23T04:31:23;3.75;;;1.70;;
54388;SDS011;40975;50.390;8.640;2022-11-23T04:34:06;3.90;;;1.77;;
54388;SDS011;40975;50.390;8.640;2022-11-23T04:36:32;6.38;;;2.67;;
54388;SDS011;40975;50.390;8.640;2022-11-23T04:38:58;6.38;;;2.30;;
54388;SDS011;40975;50.390;8.640;2022-11-23T04:41:32;8.05;;;2.10;;
54388;SDS011;40975;50.390;8.640;2022-11-23T04:43:58;5.72;;;1.77;;
54388;SDS011;40975;50.390;8.640;2022-11-23T04:46:24;4.47;;;1.75;;
54388;SDS011;40975;50.390;8.640;2022-11-23T04:48:49;6.63;;;2.40;;
54388;SDS011;40975;50.390;8.640;2022-11-23T04:51:16;4.20;;;1.75;;
54388;SDS011;40975;50.390;8.640;2022-11-23T04:53:41;5.72;;;1.60;;
54388;SDS011;40975;50.390;8.640;2022-11-23T04:56:09;4.65;;;2.00;;
54388;SDS011;40975;50.390;8.640;2022-11-23T04:58:37;11.45;;;2.35;;
54388;SDS011;40975;50.390;8.640;2022-11-23T05:01:04;2.42;;;1.75;;
54388;SDS011;40975;50.390;8.640;2022-11-23T05:03:32;4.32;;;2.53;;
54388;SDS011;40975;50.390;8.640;2022-11-23T05:06:03;9.43;;;2.17;;
54388;SDS011;40975;50.390;8.640;2022-11-23T05:08:36;4.05;;;1.63;;
54388;SDS011;40975;50.390;8.640;2022-11-23T05:11:25;6.03;;;2.17;;
54388;SDS011;40975;50.390;8.640;2022-11-23T05:13:51;4.38;;;1.98;;
54388;SDS011;40975;50.390;8.640;2022-11-23T05:16:16;4.38;;;1.88;;
54388;SDS011;40975;50.390;8.640;2022-11-23T05:18:42;7.65;;;2.42;;
54388;SDS011;40975;50.390;8.640;2022-11-23T05:21:09;6.10;;;2.38;;
54388;SDS011;40975;50.390;8.640;2022-11-23T05:23:34;7.85;;;2.42;;
54388;SDS011;40975;50.390;8.640;2022-11-23T05:26:00;6.95;;;1.50;;
54388;SDS011;40975;50.390;8.640;2022-11-23T05:28:25;6.18;;;2.20;;
54388;SDS011;40975;50.390;8.640;2022-11-23T05:30:51;3.67;;;2.00;;
54388;SDS011;40975;50.390;8.640;2022-11-23T05:33:17;6.95;;;2.63;;
54388;SDS011;40975;50.390;8.640;2022-11-23T05:35:42;7.80;;;2.50;;
54388;SDS011;40975;50.390;8.640;2022-11-23T05:38:08;6.60;;;2.03;;
54388;SDS011;40975;50.390;8.640;2022-11-23T05:40:33;8.27;;;1.95;;
54388;SDS011;40975;50.390;8.640;2022-11-23T05:43:01;3.10;;;2.17;;
54388;SDS011;40975;50.390;8.640;2022-11-23T05:45:28;5.00;;;2.00;;
54388;SDS011;40975;50.390;8.640;2022-11-23T05:47:55;7.88;;;2.13;;
54388;SDS011;40975;50.390;8.640;2022-11-23T05:50:37;6.13;;;2.15;;
54388;SDS011;40975;50.390;8.640;2022-11-23T05:53:18;7.07;;;2.30;;
54388;SDS011;40975;50.390;8.640;2022-11-23T05:55:47;4.03;;;2.28;;
54388;SDS011;40975;50.390;8.640;2022-11-23T05:58:12;6.72;;;2.15;;
54388;SDS011;40975;50.390;8.640;2022-11-23T06:00:38;3.83;;;2.17;;
54388;SDS011;40975;50.390;8.640;2022-11-23T06:03:06;6.30;;;2.78;;
54388;SDS011;40975;50.390;8.640;2022-11-23T06:05:32;6.32;;;2.58;;
54388;SDS011;40975;50.390;8.640;2022-11-23T06:07:58;6.00;;;2.35;;
54388;SDS011;40975;50.390;8.640;2022-11-23T06:10:25;5.93;;;2.22;;
54388;SDS011;40975;50.390;8.640;2022-11-23T06:12:51;8.90;;;3.47;;
54388;SDS011;40975;50.390;8.640;2022-11-23T06:15:18;4.95;;;2.08;;
54388;SDS011;40975;50.390;8.640;2022-11-23T06:17:45;5.72;;;2.22;;
54388;SDS011;40975;50.390;8.640;2022-11-23T06:20:14;9.15;;;2.67;;
54388;SDS011;40975;50.390;8.640;2022-11-23T06:22:45;9.10;;;3.40;;
54388;SDS011;40975;50.390;8.640;2022-11-23T06:25:16;3.33;;;2.58;;
54388;SDS011;40975;50.390;8.640;2022-11-23T06:27:54;4.28;;;2.75;;
54388;SDS011;40975;50.390;8.640;2022-11-23T06:30:24;8.82;;;3.10;;
54388;SDS011;40975;50.390;8.640;2022-11-23T06:32:50;6.07;;;2.90;;
54388;SDS011;40975;50.390;8.640;2022-11-23T06:35:17;8.35;;;2.78;;
54388;SDS011;40975;50.390;8.640;2022-11-23T06:37:43;8.02;;;3.50;;
54388;SDS011;40975;50.390;8.640;2022-11-23T06:40:10;7.13;;;3.15;;
54388;SDS011;40975;50.390;8.640;2022-11-23T06:42:36;11.80;;;3.70;;
54388;SDS011;40975;50.390;8.640;2022-11-23T06:45:02;8.52;;;2.83;;
54388;SDS011;40975;50.390;8.640;2022-11-23T06:47:27;9.25;;;4.03;;
54388;SDS011;40975;50.390;8.640;2022-11-23T06:49:54;10.43;;;3.40;;
54388;SDS011;40975;50.390;8.640;2022-11-23T06:52:25;7.88;;;3.38;;
54388;SDS011;40975;50.390;8.640;2022-11-23T06:54:51;7.70;;;2.85;;
54388;SDS011;40975;50.390;8.640;2022-11-23T06:57:16;5.47;;;3.05;;
54388;SDS011;40975;50.390;8.640;2022-11-23T06:59:42;10.18;;;2.97;;
54388;SDS011;40975;50.390;8.640;2022-11-23T07:02:09;6.78;;;3.25;;
54388;SDS011;40975;50.390;8.640;2022-11-23T07:04:35;5.57;;;3.00;;
54388;SDS011;40975;50.390;8.640;2022-11-23T07:07:03;3.72;;;2.85;;
54388;SDS011;40975;50.390;8.640;2022-11-23T07:09:37;6.80;;;3.28;;
54388;SDS011;40975;50.390;8.640;2022-11-23T07:12:19;9.73;;;3.72;;
54388;SDS011;40975;50.390;8.640;2022-11-23T07:14:44;6.65;;;3.05;;
54388;SDS011;40975;50.390;8.640;2022-11-23T07:17:09;7.72;;;3.63;;
54388;SDS011;40975;50.390;8.640;2022-11-23T07:19:36;7.18;;;3.60;;
54388;SDS011;40975;50.390;8.640;2022-11-23T07:22:03;6.07;;;3.08;;
54388;SDS011;40975;50.390;8.640;2022-11-23T07:24:28;7.95;;;3.13;;
54388;SDS011;40975;50.390;8.640;2022-11-23T07:26:54;10.13;;;3.92;;
54388;SDS011;40975;50.390;8.640;2022-11-23T07:29:20;7.75;;;3.47;;
54388;SDS011;40975;50.390;8.640;2022-11-23T07:31:46;7.95;;;3.50;;
54388;SDS011;40975;50.390;8.640;2022-11-23T07:34:13;5.03;;;3.28;;
54388;SDS011;40975;50.390;8.640;2022-11-23T07:36:39;11.52;;;3.97;;
54388;SDS011;40975;50.390;8.640;2022-11-23T07:39:05;5.50;;;3.28;;
54388;SDS011;40975;50.390;8.640;2022-11-23T07:41:30;6.55;;;3.47;;
54388;SDS011;40975;50.390;8.640;2022-11-23T07:44:06;11.32;;;3.88;;
54388;SDS011;40975;50.390;8.640;2022-11-23T07:46:31;7.22;;;3.42;;
54388;SDS011;40975;50.390;8.640;2022-11-23T07:48:57;7.78;;;4.05;;
54388;SDS011;40975;50.390;8.640;2022-11-23T07:51:26;5.40;;;3.58;;
54388;SDS011;40975;50.390;8.640;2022-11-23T07:53:52;9.88;;;4.38;;
54388;SDS011;40975;50.390;8.640;2022-11-23T07:56:17;4.40;;;3.30;;
54388;SDS011;40975;50.390;8.640;2022-11-23T07:58:42;9.85;;;4.78;;
54388;SDS011;40975;50.390;8.640;2022-11-23T08:01:08;5.72;;;3.42;;
54388;SDS011;40975;50.390;8.640;2022-11-23T08:03:33;6.75;;;3.55;;
54388;SDS011;40975;50.390;8.640;2022-11-23T08:05:58;6.47;;;3.65;;
54388;SDS011;40975;50.390;8.640;2022-11-23T08:08:24;6.20;;;3.55;;
54388;SDS011;40975;50.390;8.640;2022-11-23T08:10:49;47.17;;;16.45;;
54388;SDS011;40975;50.390;8.640;2022-11-23T08:13:14;49.83;;;16.70;;
54388;SDS011;40975;50.390;8.640;2022-11-23T08:15:40;7.80;;;4.40;;
54388;SDS011;40975;50.390;8.640;2022-11-23T08:18:05;17.35;;;6.28;;
54388;SDS011;40975;50.390;8.640;2022-11-23T08:20:30;32.22;;;12.80;;
54388;SDS011;40975;50.390;8.640;2022-11-23T08:22:57;51.25;;;19.85;;
54388;SDS011;40975;50.390;8.640;2022-11-23T08:25:23;25.98;;;8.02;;
54388;SDS011;40975;50.390;8.640;2022-11-23T08:27:53;28.85;;;11.48;;
54388;SDS011;40975;50.390;8.640;2022-11-23T08:30:28;14.05;;;6.47;;
54388;SDS011;40975;50.390;8.640;2022-11-23T08:32:55;14.98;;;6.40;;
54388;SDS011;40975;50.390;8.640;2022-11-23T08:35:20;9.88;;;4.05;;
54388;SDS011;40975;50.390;8.640;2022-11-23T08:37:46;10.85;;;5.63;;
54388;SDS011;40975;50.390;8.640;2022-11-23T08:40:12;5.40;;;4.05;;
54388;SDS011;40975;50.390;8.640;2022-11-23T08:42:38;16.17;;;6.90;;
54388;SDS011;40975;50.390;8.640;2022-11-23T08:45:03;11.32;;;6.47;;
54388;SDS011;40975;50.390;8.640;2022-11-23T08:47:32;7.30;;;4.93;;
54388;SDS011;40975;50.390;8.640;2022-11-23T08:49:58;11.05;;;5.90;;
54388;SDS011;40975;50.390;8.640;2022-11-23T08:52:23;8.73;;;4.22;;
54388;SDS011;40975;50.390;8.640;2022-11-23T08:54:49;10.48;;;5.80;;
54388;SDS011;40975;50.390;8.640;2022-11-23T08:57:15;13.68;;;6.65;;
54388;SDS011;40975;50.390;8.640;2022-11-23T08:59:40;9.68;;;6.32;;
54388;SDS011;40975;50.390;8.640;2022-11-23T09:02:05;16.33;;;5.93;;
54388;SDS011;40975;50.390;8.640;2022-11-23T09:04:30;15.23;;;8.18;;
54388;SDS011;40975;50.390;8.640;2022-11-23T09:06:56;15.48;;;5.85;;
54388;SDS011;40975;50.390;8.640;2022-11-23T09:09:21;22.33;;;10.10;;
54388;SDS011;40975;50.390;8.640;2022-11-23T09:11:46;11.18;;;5.40;;
54388;SDS011;40975;50.390;8.640;2022-11-23T09:14:12;11.82;;;5.75;;
54388;SDS011;40975;50.390;8.640;2022-11-23T09:16:38;16.55;;;6.78;;
54388;SDS011;40975;50.390;8.640;2022-11-23T09:19:03;16.73;;;6.45;;
54388;SDS011;40975;50.390;8.640;2022-11-23T09:21:30;9.80;;;4.68;;
54388;SDS011;40975;50.390;8.640;2022-11-23T09:23:58;12.75;;;6.70;;
54388;SDS011;40975;50.390;8.640;2022-11-23T09:26:23;8.98;;;5.07;;
54388;SDS011;40975;50.390;8.640;2022-11-23T09:28:49;10.45;;;4.90;;
54388;SDS011;40975;50.390;8.640;2022-11-23T09:31:15;19.83;;;8.65;;
54388;SDS011;40975;50.390;8.640;2022-11-23T09:33:40;12.10;;;4.50;;
54388;SDS011;40975;50.390;8.640;2022-11-23T09:36:06;10.90;;;5.88;;
54388;SDS011;40975;50.390;8.640;2022-11-23T09:38:31;13.05;;;5.40;;
54388;SDS011;40975;50.390;8.640;2022-11-23T09:41:07;14.90;;;6.57;;
54388;SDS011;40975;50.390;8.640;2022-11-23T09:44:04;11.38;;;4.70;;
54388;SDS011;40975;50.390;8.640;2022-11-23T09:49:31;6.47;;;3.75;;
54388;SDS011;40975;50.390;8.640;2022-11-23T09:52:06;4.65;;;2.60;;
54388;SDS011;40975;50.390;8.640;2022-11-23T09:54:37;7.00;;;3.33;;
54388;SDS011;40975;50.390;8.640;2022-11-23T09:57:04;9.95;;;2.60;;
54388;SDS011;40975;50.390;8.640;2022-11-23T10:01:55;4.20;;;1.73;;
54388;SDS011;40975;50.390;8.640;2022-11-23T10:04:21;3.33;;;1.70;;
54388;SDS011;40975;50.390;8.640;2022-11-23T10:06:51;6.72;;;2.08;;
54388;SDS011;40975;50.390;8.640;2022-11-23T10:09:38;4.60;;;2.00;;
54388;SDS011;40975;50.390;8.640;2022-11-23T10:15:14;14.38;;;6.07;;
54388;SDS011;40975;50.390;8.640;2022-11-23T10:21:02;5.03;;;2.15;;
54388;SDS011;40975;50.390;8.640;2022-11-23T10:26:23;6.18;;;1.88;;
54388;SDS011;40975;50.390;8.640;2022-11-23T10:28:52;5.93;;;1.70;;
54388;SDS011;40975;50.390;8.640;2022-11-23T10:31:19;4.30;;;1.23;;
54388;SDS011;40975;50.390;8.640;2022-11-23T10:36:20;4.45;;;1.75;;
54388;SDS011;40975;50.390;8.640;2022-11-23T10:38:50;5.60;;;1.60;;
54388;SDS011;40975;50.390;8.640;2022-11-23T10:41:21;3.35;;;1.42;;
54388;SDS011;40975;50.390;8.640;2022-11-23T10:46:49;7.00;;;1.95;;
54388;SDS011;40975;50.390;8.640;2022-11-23T10:49:22;6.50;;;1.58;;
54388;SDS011;40975;50.390;8.640;2022-11-23T10:51:50;6.50;;;1.48;;
54388;SDS011;40975;50.390;8.640;2022-11-23T10:55:05;2.53;;;1.63;;
54388;SDS011;40975;50.390;8.640;2022-11-23T10:57:26;5.85;;;1.55;;
54388;SDS011;40975;50.390;8.640;2022-11-23T11:02:53;7.53;;;1.48;;
54388;SDS011;40975;50.390;8.640;2022-11-23T11:05:27;3.42;;;1.30;;
54388;SDS011;40975;50.390;8.640;2022-11-23T11:08:11;4.72;;;1.00;;
54388;SDS011;40975;50.390;8.640;2022-11-23T11:10:42;2.80;;;1.13;;
54388;SDS011;40975;50.390;8.640;2022-11-23T11:15:51;6.82;;;1.02;;
54388;SDS011;40975;50.390;8.640;2022-11-23T11:18:31;3.85;;;0.88;;
54388;SDS011;40975;50.390;8.640;2022-11-23T11:21:44;3.08;;;1.52;;
54388;SDS011;40975;50.390;8.640;2022-11-23T11:23:51;3.25;;;0.98;;
54388;SDS011;40975;50.390;8.640;2022-11-23T11:26:19;3.33;;;1.27;;
54388;SDS011;40975;50.390;8.640;2022-11-23T11:28:48;5.53;;;1.13;;
54388;SDS011;40975;50.390;8.640;2022-11-23T11:34:04;4.30;;;1.00;;
54388;SDS011;40975;50.390;8.640;2022-11-23T11:36:38;3.17;;;0.93;;
54388;SDS011;40975;50.390;8.640;2022-11-23T11:39:09;4.95;;;1.58;;
54388;SDS011;40975;50.390;8.640;2022-11-23T11:41:44;6.05;;;1.35;;
54388;SDS011;40975;50.390;8.640;2022-11-23T11:44:16;3.72;;;1.13;;
54388;SDS011;40975;50.390;8.640;2022-11-23T11:46:47;4.63;;;1.60;;
54388;SDS011;40975;50.390;8.640;2022-11-23T11:49:20;1.63;;;1.10;;
54388;SDS011;40975;50.390;8.640;2022-11-23T11:54:39;5.85;;;1.02;;
54388;SDS011;40975;50.390;8.640;2022-11-23T11:57:21;5.22;;;1.05;;
54388;SDS011;40975;50.390;8.640;2022-11-23T11:59:56;3.35;;;0.88;;
54388;SDS011;40975;50.390;8.640;2022-11-23T12:05:06;3.88;;;1.30;;
54388;SDS011;40975;50.390;8.640;2022-11-23T12:07:58;4.70;;;0.90;;
54388;SDS011;40975;50.390;8.640;2022-11-23T12:13:15;3.38;;;1.20;;
54388;SDS011;40975;50.390;8.640;2022-11-23T12:15:43;4.00;;;0.77;;
54388;SDS011;40975;50.390;8.640;2022-11-23T12:18:14;6.68;;;1.10;;
54388;SDS011;40975;50.390;8.640;2022-11-23T12:26:18;6.07;;;1.03;;
54388;SDS011;40975;50.390;8.640;2022-11-23T12:28:57;3.97;;;0.90;;
54388;SDS011;40975;50.390;8.640;2022-11-23T12:31:46;3.27;;;0.83;;
54388;SDS011;40975;50.390;8.640;2022-11-23T12:36:56;4.38;;;1.08;;
54388;SDS011;40975;50.390;8.640;2022-11-23T12:40:02;4.07;;;0.85;;
54388;SDS011;40975;50.390;8.640;2022-11-23T12:42:45;4.03;;;1.33;;
54388;SDS011;40975;50.390;8.640;2022-11-23T12:51:03;5.78;;;0.95;;
54388;SDS011;40975;50.390;8.640;2022-11-23T12:53:48;3.88;;;1.20;;
54388;SDS011;40975;50.390;8.640;2022-11-23T12:59:18;5.22;;;1.30;;
54388;SDS011;40975;50.390;8.640;2022-11-23T13:01:47;4.85;;;1.35;;
54388;SDS011;40975;50.390;8.640;2022-11-23T13:04:30;6.45;;;1.35;;
54388;SDS011;40975;50.390;8.640;2022-11-23T13:18:43;3.47;;;1.15;;
54388;SDS011;40975;50.390;8.640;2022-11-23T13:23:46;5.68;;;1.40;;
54388;SDS011;40975;50.390;8.640;2022-11-23T13:26:18;6.25;;;1.52;;
54388;SDS011;40975;50.390;8.640;2022-11-23T13:28:49;5.82;;;1.13;;
54388;SDS011;40975;50.390;8.640;2022-11-23T13:34:01;3.08;;;0.77;;
54388;SDS011;40975;50.390;8.640;2022-11-23T13:38:53;5.87;;;1.07;;
54388;SDS011;40975;50.390;8.640;2022-11-23T13:41:55;4.65;;;0.93;;
54388;SDS011;40975;50.390;8.640;2022-11-23T13:44:28;2.38;;;0.60;;
54388;SDS011;40975;50.390;8.640;2022-11-23T13:46:59;4.43;;;1.17;;
54388;SDS011;40975;50.390;8.640;2022-11-23T13:49:32;3.88;;;0.85;;
54388;SDS011;40975;50.390;8.640;2022-11-23T13:57:25;6.82;;;1.00;;
54388;SDS011;40975;50.390;8.640;2022-11-23T13:59:50;3.53;;;1.15;;
54388;SDS011;40975;50.390;8.640;2022-11-23T14:04:41;6.53;;;1.00;;
54388;SDS011;40975;50.390;8.640;2022-11-23T14:07:20;5.57;;;1.20;;
54388;SDS011;40975;50.390;8.640;2022-11-23T14:09:59;4.57;;;1.00;;
54388;SDS011;40975;50.390;8.640;2022-11-23T14:15:12;5.55;;;1.02;;
54388;SDS011;40975;50.390;8.640;2022-11-23T14:20:45;3.53;;;0.77;;
54388;SDS011;40975;50.390;8.640;2022-11-23T14:23:19;3.72;;;1.17;;
54388;SDS011;40975;50.390;8.640;2022-11-23T14:37:30;3.05;;;0.95;;
54388;SDS011;40975;50.390;8.640;2022-11-23T14:40:06;3.63;;;1.02;;
54388;SDS011;40975;50.390;8.640;2022-11-23T14:42:42;3.25;;;0.70;;
54388;SDS011;40975;50.390;8.640;2022-11-23T14:45:14;4.85;;;1.30;;
54388;SDS011;40975;50.390;8.640;2022-11-23T14:47:40;4.05;;;1.02;;
54388;SDS011;40975;50.390;8.640;2022-11-23T14:50:19;7.97;;;1.20;;
54388;SDS011;40975;50.390;8.640;2022-11-23T14:52:48;3.92;;;0.85;;
54388;SDS011;40975;50.390;8.640;2022-11-23T14:55:20;3.15;;;0.60;;
54388;SDS011;40975;50.390;8.640;2022-11-23T14:57:47;4.82;;;0.77;;
54388;SDS011;40975;50.390;8.640;2022-11-23T15:00:26;4.60;;;1.80;;
54388;SDS011;40975;50.390;8.640;2022-11-23T15:02:52;2.35;;;1.17;;
54388;SDS011;40975;50.390;8.640;2022-11-23T15:05:24;2.40;;;1.23;;
54388;SDS011;40975;50.390;8.640;2022-11-23T15:07:54;5.55;;;1.10;;
54388;SDS011;40975;50.390;8.640;2022-11-23T15:10:43;3.03;;;1.02;;
54388;SDS011;40975;50.390;8.640;2022-11-23T15:13:20;1.02;;;0.90;;
54388;SDS011;40975;50.390;8.640;2022-11-23T15:15:49;3.42;;;1.20;;
54388;SDS011;40975;50.390;8.640;2022-11-23T15:18:35;5.68;;;1.35;;
54388;SDS011;40975;50.390;8.640;2022-11-23T15:23:40;6.15;;;2.08;;
54388;SDS011;40975;50.390;8.640;2022-11-23T15:26:13;7.07;;;3.50;;
54388;SDS011;40975;50.390;8.640;2022-11-23T15:28:45;7.13;;;1.80;;
54388;SDS011;40975;50.390;8.640;2022-11-23T15:31:18;6.18;;;1.70;;
54388;SDS011;40975;50.390;8.640;2022-11-23T15:33:55;7.03;;;3.35;;
54388;SDS011;40975;50.390;8.640;2022-11-23T15:36:24;4.63;;;1.92;;
54388;SDS011;40975;50.390;8.640;2022-11-23T15:38:52;7.68;;;1.80;;
54388;SDS011;40975;50.390;8.640;2022-11-23T15:41:18;6.00;;;2.90;;
54388;SDS011;40975;50.390;8.640;2022-11-23T15:43:50;6.07;;;1.85;;
54388;SDS011;40975;50.390;8.640;2022-11-23T15:46:17;5.10;;;1.17;;
54388;SDS011;40975;50.390;8.640;2022-11-23T15:48:46;1.52;;;1.40;;
54388;SDS011;40975;50.390;8.640;2022-11-23T15:51:18;6.75;;;1.77;;
54388;SDS011;40975;50.390;8.640;2022-11-23T15:53:48;3.83;;;1.13;;
54388;SDS011;40975;50.390;8.640;2022-11-23T15:56:32;3.65;;;1.20;;
54388;SDS011;40975;50.390;8.640;2022-11-23T15:59:00;5.32;;;1.80;;
54388;SDS011;40975;50.390;8.640;2022-11-23T16:01:28;9.93;;;2.70;;
54388;SDS011;40975;50.390;8.640;2022-11-23T16:03:57;8.73;;;2.63;;
54388;SDS011;40975;50.390;8.640;2022-11-23T16:06:37;7.03;;;2.47;;
54388;SDS011;40975;50.390;8.640;2022-11-23T16:12:03;7.70;;;1.85;;
54388;SDS011;40975;50.390;8.640;2022-11-23T16:14:43;3.85;;;1.58;;
54388;SDS011;40975;50.390;8.640;2022-11-23T16:17:14;1.40;;;0.88;;
54388;SDS011;40975;50.390;8.640;2022-11-23T16:19:47;4.35;;;1.00;;
54388;SDS011;40975;50.390;8.640;2022-11-23T16:22:21;3.40;;;1.30;;
54388;SDS011;40975;50.390;8.640;2022-11-23T16:24:51;4.68;;;0.55;;
54388;SDS011;40975;50.390;8.640;2022-11-23T16:27:23;2.30;;;0.55;;
54388;SDS011;40975;50.390;8.640;2022-11-23T16:29:50;2.85;;;1.15;;
54388;SDS011;40975;50.390;8.640;2022-11-23T16:32:27;2.08;;;0.40;;
54388;SDS011;40975;50.390;8.640;2022-11-23T16:34:54;2.00;;;0.52;;
54388;SDS011;40975;50.390;8.640;2022-11-23T16:37:21;1.90;;;0.40;;
54388;SDS011;40975;50.390;8.640;2022-11-23T16:39:47;7.00;;;1.10;;
54388;SDS011;40975;50.390;8.640;2022-11-23T16:42:13;2.00;;;0.93;;
54388;SDS011;40975;50.390;8.640;2022-11-23T16:44:40;3.38;;;1.45;;
54388;SDS011;40975;50.390;8.640;2022-11-23T16:47:22;4.93;;;1.40;;
54388;SDS011;40975;50.390;8.640;2022-11-23T16:49:49;3.40;;;1.60;;